createdAt,value
2023-04-26T00:00:55.541Z,100.00
2023-04-26T00:03:23.548Z,100.00
2023-04-26T00:05:51.006Z,100.00
2023-04-26T00:08:17.920Z,100.00
2023-04-26T00:10:45.017Z,100.00
2023-04-26T00:13:12.016Z,100.00
2023-04-26T00:15:39.276Z,100.00
2023-04-26T00:18:06.298Z,100.00
2023-04-26T00:20:33.403Z,100.00
2023-04-26T00:23:00.348Z,100.00
2023-04-26T00:25:27.502Z,100.00
2023-04-26T00:27:54.381Z,100.00
2023-04-26T00:30:22.547Z,100.00
2023-04-26T00:32:49.506Z,100.00
2023-04-26T00:35:16.818Z,100.00
2023-04-26T00:37:43.848Z,100.00
2023-04-26T00:40:11.746Z,100.00
2023-04-26T00:42:40.124Z,100.00
2023-04-26T00:45:07.778Z,100.00
2023-04-26T00:47:35.385Z,100.00
2023-04-26T00:50:03.600Z,100.00
2023-04-26T00:52:31.877Z,100.00
2023-04-26T00:54:59.142Z,100.00
2023-04-26T00:57:26.291Z,100.00
2023-04-26T00:59:53.497Z,100.00
2023-04-26T01:02:21.039Z,100.00
2023-04-26T01:04:48.489Z,100.00
2023-04-26T01:07:15.428Z,100.00
2023-04-26T01:09:44.175Z,100.00
2023-04-26T01:12:12.042Z,100.00
2023-04-26T01:14:40.096Z,100.00
2023-04-26T01:17:07.056Z,100.00
2023-04-26T01:19:37.524Z,100.00
2023-04-26T01:22:04.451Z,100.00
2023-04-26T01:24:33.106Z,100.00
2023-04-26T01:27:00.016Z,100.00
2023-04-26T01:29:27.489Z,100.00
2023-04-26T01:31:54.350Z,100.00
2023-04-26T01:34:21.842Z,100.00
2023-04-26T01:36:48.783Z,100.00
2023-04-26T01:39:16.054Z,100.00
2023-04-26T01:41:42.956Z,100.00
2023-04-26T01:44:10.171Z,100.00
2023-04-26T01:46:37.169Z,100.00
2023-04-26T01:49:04.398Z,100.00
2023-04-26T01:51:31.439Z,100.00
2023-04-26T01:53:58.703Z,100.00
2023-04-26T01:56:25.977Z,100.00
2023-04-26T01:58:53.414Z,100.00
2023-04-26T02:01:20.397Z,100.00
2023-04-26T02:03:49.334Z,100.00
2023-04-26T02:06:16.358Z,100.00
2023-04-26T02:08:43.493Z,100.00
2023-04-26T02:11:10.472Z,100.00
2023-04-26T02:13:38.232Z,100.00
2023-04-26T02:16:05.519Z,100.00
2023-04-26T02:18:32.645Z,100.00
2023-04-26T02:20:59.477Z,100.00
2023-04-26T02:23:26.641Z,100.00
2023-04-26T02:25:53.614Z,100.00
2023-04-26T02:28:21.123Z,100.00
2023-04-26T02:30:47.943Z,100.00
2023-04-26T02:33:15.143Z,100.00
2023-04-26T02:35:41.971Z,100.00
2023-04-26T02:38:09.223Z,100.00
2023-04-26T02:40:36.148Z,100.00
2023-04-26T02:43:03.599Z,100.00
2023-04-26T02:45:30.481Z,100.00
2023-04-26T02:47:57.679Z,100.00
2023-04-26T02:50:24.541Z,100.00
2023-04-26T02:52:51.747Z,100.00
2023-04-26T02:55:18.826Z,100.00
2023-04-26T02:57:45.965Z,100.00
2023-04-26T03:00:14.289Z,100.00
2023-04-26T03:02:42.079Z,100.00
2023-04-26T03:05:09.824Z,100.00
2023-04-26T03:07:37.354Z,100.00
2023-04-26T03:10:05.467Z,100.00
2023-04-26T03:12:32.632Z,100.00
2023-04-26T03:14:59.546Z,100.00
2023-04-26T03:17:26.908Z,100.00
2023-04-26T03:19:54.259Z,100.00
2023-04-26T03:22:21.414Z,100.00
2023-04-26T03:24:49.195Z,100.00
2023-04-26T03:27:16.636Z,100.00
2023-04-26T03:29:44.244Z,100.00
2023-04-26T03:32:11.740Z,100.00
2023-04-26T03:34:38.643Z,100.00
2023-04-26T03:37:05.758Z,100.00
2023-04-26T03:39:32.979Z,100.00
2023-04-26T03:42:00.226Z,100.00
2023-04-26T03:44:27.739Z,100.00
2023-04-26T03:46:56.472Z,100.00
2023-04-26T03:49:23.349Z,100.00
2023-04-26T03:51:50.816Z,100.00
2023-04-26T03:54:17.694Z,100.00
2023-04-26T03:56:44.868Z,100.00
2023-04-26T03:59:12.136Z,100.00
2023-04-26T04:01:39.289Z,100.00
2023-04-26T04:04:06.426Z,100.00
2023-04-26T04:06:33.621Z,100.00
2023-04-26T04:09:00.482Z,100.00
2023-04-26T04:11:27.704Z,100.00
2023-04-26T04:13:54.629Z,100.00
2023-04-26T04:16:21.977Z,100.00
2023-04-26T04:18:48.904Z,100.00
2023-04-26T04:21:16.559Z,100.00
2023-04-26T04:23:44.413Z,100.00
2023-04-26T04:26:12.692Z,100.00
2023-04-26T04:28:41.677Z,100.00
2023-04-26T04:31:11.795Z,100.00
2023-04-26T04:33:38.927Z,100.00
2023-04-26T04:36:06.930Z,100.00
2023-04-26T04:38:33.913Z,100.00
2023-04-26T04:41:01.116Z,100.00
2023-04-26T04:43:28.066Z,100.00
2023-04-26T04:45:55.740Z,100.00
2023-04-26T04:48:22.696Z,100.00
2023-04-26T04:50:50.477Z,100.00
2023-04-26T04:53:17.533Z,100.00
2023-04-26T04:55:44.920Z,100.00
2023-04-26T04:58:12.410Z,100.00
2023-04-26T05:00:39.778Z,100.00
2023-04-26T05:03:10.051Z,100.00
2023-04-26T05:05:37.494Z,100.00
2023-04-26T05:08:04.538Z,100.00
2023-04-26T05:10:31.789Z,100.00
2023-04-26T05:12:58.622Z,100.00
2023-04-26T05:15:25.804Z,100.00
2023-04-26T05:17:52.737Z,100.00
2023-04-26T05:20:20.007Z,100.00
2023-04-26T05:22:47.069Z,100.00
2023-04-26T05:25:14.333Z,100.00
2023-04-26T05:27:41.167Z,100.00
2023-04-26T05:30:08.870Z,100.00
2023-04-26T05:32:35.742Z,100.00
2023-04-26T05:35:03.166Z,100.00
2023-04-26T05:37:30.027Z,100.00
2023-04-26T05:39:57.392Z,100.00
2023-04-26T05:42:24.222Z,100.00
2023-04-26T05:44:51.371Z,100.00
2023-04-26T05:47:18.342Z,100.00
2023-04-26T05:49:45.487Z,100.00
2023-04-26T05:52:12.316Z,100.00
2023-04-26T05:54:39.491Z,100.00
2023-04-26T05:57:06.474Z,100.00
2023-04-26T05:59:36.749Z,100.00
2023-04-26T06:02:04.932Z,99.85
2023-04-26T06:04:32.820Z,97.36
2023-04-26T06:07:00.605Z,97.21
2023-04-26T06:09:27.894Z,95.28
2023-04-26T06:11:54.766Z,95.81
2023-04-26T06:14:30.027Z,98.08
2023-04-26T06:16:58.645Z,92.13
2023-04-26T06:19:25.886Z,91.13
2023-04-26T06:21:55.015Z,88.22
2023-04-26T06:24:23.441Z,85.69
2023-04-26T06:26:50.294Z,84.56
2023-04-26T06:29:17.658Z,82.08
2023-04-26T06:31:44.465Z,81.76
2023-04-26T06:34:11.608Z,82.82
2023-04-26T06:36:38.542Z,83.18
2023-04-26T06:39:06.303Z,81.07
2023-04-26T06:41:33.258Z,80.64
2023-04-26T06:44:00.489Z,76.94
2023-04-26T06:46:27.389Z,72.71
2023-04-26T06:48:55.529Z,71.16
2023-04-26T06:51:22.445Z,66.22
2023-04-26T06:53:49.651Z,67.99
2023-04-26T06:56:17.008Z,60.95
2023-04-26T06:59:04.244Z,59.42
2023-04-26T07:01:34.110Z,57.49
2023-04-26T07:04:07.923Z,56.07
2023-04-26T07:06:36.183Z,52.78
2023-04-26T07:09:03.896Z,50.80
2023-04-26T07:11:31.473Z,51.42
2023-04-26T07:13:58.601Z,50.92
2023-04-26T07:16:26.709Z,51.26
2023-04-26T07:18:53.982Z,48.89
2023-04-26T07:21:20.837Z,49.71
2023-04-26T07:23:47.899Z,50.72
2023-04-26T07:26:14.758Z,51.70
2023-04-26T07:28:42.020Z,53.38
2023-04-26T07:31:10.149Z,54.51
2023-04-26T07:33:38.360Z,56.27
2023-04-26T07:36:05.921Z,58.71
2023-04-26T07:38:33.047Z,61.74
2023-04-26T07:41:01.431Z,63.22
2023-04-26T07:43:28.611Z,61.70
2023-04-26T07:45:55.559Z,59.29
2023-04-26T07:48:22.807Z,58.20
2023-04-26T07:50:49.629Z,61.17
2023-04-26T07:53:16.736Z,62.67
2023-04-26T07:55:43.570Z,60.99
2023-04-26T07:58:14.608Z,59.94
2023-04-26T08:00:41.939Z,59.10
2023-04-26T08:03:09.409Z,59.14
2023-04-26T08:05:36.531Z,59.99
2023-04-26T08:08:04.241Z,63.17
2023-04-26T08:10:31.260Z,60.18
2023-04-26T08:12:58.386Z,57.67
2023-04-26T08:15:25.177Z,57.26
2023-04-26T08:17:53.478Z,56.31
2023-04-26T08:20:20.948Z,59.03
2023-04-26T08:22:48.061Z,60.03
2023-04-26T08:25:15.619Z,56.26
2023-04-26T08:27:44.917Z,56.97
2023-04-26T08:30:12.303Z,54.47
2023-04-26T08:32:39.452Z,55.48
2023-04-26T08:35:06.618Z,56.16
2023-04-26T08:37:33.824Z,55.97
2023-04-26T08:40:00.638Z,56.71
2023-04-26T08:42:28.944Z,58.34
2023-04-26T08:44:59.877Z,58.86
2023-04-26T08:47:40.253Z,59.89
2023-04-26T08:50:08.470Z,58.65
2023-04-26T08:52:35.617Z,58.21
2023-04-26T08:55:05.484Z,55.63
2023-04-26T08:57:35.692Z,55.40
2023-04-26T09:00:12.455Z,57.26
2023-04-26T09:02:57.459Z,54.57
2023-04-26T09:05:24.947Z,55.31
2023-04-26T09:07:57.016Z,54.94
2023-04-26T09:10:24.139Z,55.51
2023-04-26T09:12:55.124Z,57.17
2023-04-26T09:15:23.546Z,54.60
2023-04-26T09:17:51.918Z,52.76
2023-04-26T09:20:25.861Z,54.94
2023-04-26T09:23:15.879Z,54.35
2023-04-26T09:25:42.708Z,46.03
2023-04-26T09:28:22.752Z,42.53
2023-04-26T09:30:49.993Z,44.88
2023-04-26T09:33:17.253Z,45.42
2023-04-26T09:35:44.235Z,47.72
2023-04-26T09:38:13.528Z,49.27
2023-04-26T09:40:49.219Z,52.88
2023-04-26T09:43:21.580Z,53.32
2023-04-26T09:45:54.039Z,54.05
2023-04-26T09:48:26.328Z,55.45
2023-04-26T09:50:55.222Z,51.78
2023-04-26T09:53:31.742Z,52.46
2023-04-26T09:56:09.861Z,50.30
2023-04-26T09:58:39.129Z,50.16
2023-04-26T10:01:08.043Z,48.16
2023-04-26T10:03:36.158Z,48.81
2023-04-26T10:06:04.320Z,47.59
2023-04-26T10:08:32.857Z,47.46
2023-04-26T10:11:02.315Z,50.92
2023-04-26T10:13:32.468Z,52.39
2023-04-26T10:16:01.546Z,52.24
2023-04-26T10:18:28.997Z,54.02
2023-04-26T10:21:00.166Z,55.96
2023-04-26T10:23:27.837Z,56.82
2023-04-26T10:25:55.171Z,54.51
2023-04-26T10:28:40.482Z,56.28
2023-04-26T10:31:07.882Z,56.96
2023-04-26T10:33:35.189Z,56.50
2023-04-26T10:36:02.042Z,56.65
2023-04-26T10:38:29.358Z,58.97
2023-04-26T10:40:56.951Z,59.05
2023-04-26T10:43:30.458Z,57.05
2023-04-26T10:45:57.411Z,57.19
2023-04-26T10:48:31.849Z,57.70
2023-04-26T10:51:02.218Z,58.53
2023-04-26T10:53:45.574Z,59.57
2023-04-26T10:56:32.242Z,60.28
2023-04-26T10:59:33.362Z,61.84
2023-04-26T11:02:01.066Z,60.88
2023-04-26T11:04:52.442Z,60.41
2023-04-26T11:07:37.754Z,60.76
2023-04-26T11:10:12.018Z,61.03
2023-04-26T11:12:42.038Z,59.10
2023-04-26T11:15:09.425Z,58.21
2023-04-26T11:17:39.240Z,56.33
2023-04-26T11:20:10.195Z,56.08
2023-04-26T11:22:40.803Z,58.03
2023-04-26T11:25:08.045Z,56.43
2023-04-26T11:27:34.875Z,56.49
2023-04-26T11:30:05.393Z,54.66
2023-04-26T11:32:33.593Z,52.81
2023-04-26T11:35:01.275Z,53.41
2023-04-26T11:37:28.237Z,56.00
2023-04-26T11:39:57.460Z,53.84
2023-04-26T11:42:27.318Z,53.88
2023-04-26T11:44:59.390Z,55.26
2023-04-26T11:49:58.420Z,50.52
2023-04-26T11:52:26.594Z,50.81
2023-04-26T11:55:10.687Z,51.97
2023-04-26T11:57:37.708Z,52.14
2023-04-26T12:00:11.579Z,51.56
2023-04-26T12:02:38.748Z,49.02
2023-04-26T12:05:08.879Z,48.92
2023-04-26T12:07:37.774Z,46.13
2023-04-26T12:10:23.935Z,47.70
2023-04-26T12:12:52.121Z,47.27
2023-04-26T12:15:22.539Z,46.72
2023-04-26T12:17:53.890Z,46.57
2023-04-26T12:20:28.013Z,47.44
2023-04-26T12:23:21.193Z,49.36
2023-04-26T12:25:57.548Z,49.65
2023-04-26T12:28:25.039Z,51.02
2023-04-26T12:30:52.738Z,53.51
2023-04-26T12:33:22.863Z,51.18
2023-04-26T12:35:50.971Z,51.98
2023-04-26T12:38:21.003Z,52.90
2023-04-26T12:40:48.132Z,54.37
2023-04-26T12:43:16.767Z,50.57
2023-04-26T12:45:43.960Z,51.30
2023-04-26T12:48:11.897Z,49.04
2023-04-26T12:50:39.362Z,48.60
2023-04-26T12:53:06.261Z,48.21
2023-04-26T12:55:33.531Z,48.38
2023-04-26T12:58:00.647Z,47.51
2023-04-26T13:00:27.927Z,47.88
2023-04-26T13:02:55.719Z,45.98
2023-04-26T13:05:24.995Z,44.81
2023-04-26T13:07:52.095Z,46.26
2023-04-26T13:10:19.241Z,46.46
2023-04-26T13:12:46.238Z,46.87
2023-04-26T13:15:14.327Z,47.07
2023-04-26T13:17:43.132Z,46.89
2023-04-26T13:20:10.903Z,49.42
2023-04-26T13:22:39.486Z,47.89
2023-04-26T13:25:07.109Z,47.84
2023-04-26T13:27:33.949Z,47.24
2023-04-26T13:30:01.657Z,47.14
2023-04-26T13:32:29.588Z,46.62
2023-04-26T13:34:57.061Z,48.26
2023-04-26T13:37:24.010Z,48.31
2023-04-26T13:39:51.385Z,50.44
2023-04-26T13:42:18.567Z,50.23
2023-04-26T13:44:45.821Z,48.23
2023-04-26T13:47:12.739Z,47.16
2023-04-26T13:49:44.876Z,47.92
2023-04-26T13:52:12.120Z,46.67
2023-04-26T13:54:42.047Z,46.85
2023-04-26T13:57:09.141Z,45.61
2023-04-26T13:59:36.582Z,47.86
2023-04-26T14:02:03.893Z,45.39
2023-04-26T14:04:31.307Z,47.11
2023-04-26T14:06:58.921Z,44.51
2023-04-26T14:09:26.087Z,45.76
2023-04-26T14:12:00.862Z,45.47
2023-04-26T14:14:34.855Z,44.56
2023-04-26T14:17:01.797Z,46.46
2023-04-26T14:19:28.932Z,47.69
2023-04-26T14:21:55.882Z,46.92
2023-04-26T14:24:23.025Z,47.80
2023-04-26T14:26:49.958Z,47.18
2023-04-26T14:29:17.304Z,46.86
2023-04-26T14:31:45.172Z,47.37
2023-04-26T14:34:13.486Z,48.67
2023-04-26T14:36:40.713Z,49.51
2023-04-26T14:39:07.952Z,51.05
2023-04-26T14:41:34.825Z,48.46
2023-04-26T14:44:01.980Z,47.26
2023-04-26T14:46:28.900Z,46.34
2023-04-26T14:48:56.049Z,45.93
2023-04-26T14:51:22.868Z,46.56
2023-04-26T14:53:50.034Z,44.16
2023-04-26T14:56:17.112Z,43.40
2023-04-26T14:58:44.333Z,43.00
2023-04-26T15:01:11.235Z,43.05
2023-04-26T15:03:38.693Z,44.45
2023-04-26T15:06:05.998Z,44.63
2023-04-26T15:08:33.195Z,46.04
2023-04-26T15:11:01.023Z,46.34
2023-04-26T15:13:28.158Z,46.76
2023-04-26T15:15:55.005Z,47.82
2023-04-26T15:18:22.544Z,48.97
2023-04-26T15:20:49.444Z,50.09
2023-04-26T15:23:16.807Z,50.33
2023-04-26T15:25:43.873Z,50.72
2023-04-26T15:28:11.376Z,52.22
2023-04-26T15:30:38.207Z,52.27
2023-04-26T15:33:07.740Z,51.30
2023-04-26T15:35:34.548Z,50.77
2023-04-26T15:38:01.934Z,50.82
2023-04-26T15:40:28.805Z,49.87
2023-04-26T15:42:56.044Z,49.50
2023-04-26T15:45:22.907Z,50.66
2023-04-26T15:47:50.080Z,51.62
2023-04-26T15:50:17.243Z,52.06
2023-04-26T15:52:44.426Z,50.73
2023-04-26T15:55:11.401Z,51.14
2023-04-26T15:57:42.097Z,51.56
2023-04-26T16:00:09.829Z,51.16
2023-04-26T16:02:37.414Z,51.35
2023-04-26T16:05:04.948Z,51.11
2023-04-26T16:07:32.470Z,51.84
2023-04-26T16:09:59.303Z,51.69
2023-04-26T16:12:26.470Z,51.10
2023-04-26T16:14:53.332Z,52.91
2023-04-26T16:17:20.696Z,53.28
2023-04-26T16:19:48.565Z,53.82
2023-04-26T16:22:15.912Z,54.52
2023-04-26T16:24:42.725Z,54.15
2023-04-26T16:27:10.066Z,54.65
2023-04-26T16:29:36.994Z,54.55
2023-04-26T16:32:04.199Z,54.78
2023-04-26T16:34:31.435Z,55.25
2023-04-26T16:36:58.640Z,56.07
2023-04-26T16:39:26.170Z,55.90
2023-04-26T16:41:53.964Z,55.64
2023-04-26T16:44:20.863Z,55.83
2023-04-26T16:46:48.028Z,55.20
2023-04-26T16:49:14.878Z,54.84
2023-04-26T16:51:44.420Z,54.21
2023-04-26T16:54:11.457Z,53.91
2023-04-26T16:56:38.597Z,54.25
2023-04-26T16:59:05.431Z,53.72
2023-04-26T17:01:32.680Z,53.60
2023-04-26T17:03:59.636Z,53.49
2023-04-26T17:06:26.918Z,54.56
2023-04-26T17:08:53.829Z,54.65
2023-04-26T17:11:21.112Z,54.56
2023-04-26T17:13:48.002Z,55.21
2023-04-26T17:16:15.268Z,55.55
2023-04-26T17:18:42.257Z,56.37
2023-04-26T17:21:09.429Z,57.00
2023-04-26T17:23:36.457Z,57.29
2023-04-26T17:26:04.467Z,56.71
2023-04-26T17:28:33.079Z,57.48
2023-04-26T17:31:00.700Z,57.79
2023-04-26T17:33:27.662Z,58.65
2023-04-26T17:35:54.826Z,59.12
2023-04-26T17:38:21.888Z,60.25
2023-04-26T17:40:53.863Z,60.48
2023-04-26T17:43:21.293Z,60.67
2023-04-26T17:45:48.532Z,62.07
2023-04-26T17:48:15.980Z,62.73
2023-04-26T17:50:43.220Z,63.06
2023-04-26T17:53:10.227Z,63.43
2023-04-26T17:55:37.894Z,63.78
2023-04-26T17:58:04.776Z,63.94
2023-04-26T18:00:32.246Z,64.00
2023-04-26T18:02:59.561Z,64.15
2023-04-26T18:05:26.846Z,63.95
2023-04-26T18:07:53.713Z,64.37
2023-04-26T18:10:22.028Z,64.82
2023-04-26T18:12:48.941Z,64.88
2023-04-26T18:15:16.205Z,65.23
2023-04-26T18:17:43.690Z,65.07
2023-04-26T18:20:13.126Z,65.27
2023-04-26T18:22:40.551Z,65.32
2023-04-26T18:25:08.039Z,66.39
2023-04-26T18:27:35.014Z,66.36
2023-04-26T18:30:02.294Z,67.43
2023-04-26T18:32:29.179Z,67.56
2023-04-26T18:34:56.330Z,68.60
2023-04-26T18:37:23.264Z,68.97
2023-04-26T18:39:50.491Z,68.95
2023-04-26T18:42:17.370Z,69.19
2023-04-26T18:44:44.571Z,69.96
2023-04-26T18:47:11.879Z,69.45
2023-04-26T18:49:39.079Z,69.94
2023-04-26T18:52:08.799Z,70.15
2023-04-26T18:54:38.402Z,71.32
2023-04-26T18:57:05.177Z,72.46
2023-04-26T18:59:32.297Z,73.03
2023-04-26T19:01:59.209Z,73.91
2023-04-26T19:04:27.236Z,75.86
2023-04-26T19:06:54.249Z,79.13
2023-04-26T19:09:21.881Z,80.89
2023-04-26T19:11:49.093Z,81.78
2023-04-26T19:14:16.291Z,82.76
2023-04-26T19:16:43.997Z,84.66
2023-04-26T19:19:11.329Z,86.60
2023-04-26T19:21:38.261Z,87.93
2023-04-26T19:24:06.021Z,89.59
2023-04-26T19:26:32.962Z,89.81
2023-04-26T19:29:00.163Z,90.44
2023-04-26T19:31:27.938Z,91.61
2023-04-26T19:33:55.128Z,93.02
2023-04-26T19:36:22.040Z,94.43
2023-04-26T19:38:49.234Z,95.13
2023-04-26T19:41:16.150Z,95.83
2023-04-26T19:43:43.349Z,96.81
2023-04-26T19:46:14.140Z,97.57
2023-04-26T19:48:41.501Z,97.29
2023-04-26T19:51:08.566Z,98.36
2023-04-26T19:53:35.853Z,99.10
2023-04-26T19:56:03.355Z,99.95
2023-04-26T19:58:30.522Z,100.00
2023-04-26T20:00:57.475Z,100.00
2023-04-26T20:03:24.775Z,100.00
2023-04-26T20:05:51.937Z,100.00
2023-04-26T20:08:19.262Z,100.00
2023-04-26T20:10:46.320Z,100.00
2023-04-26T20:13:13.521Z,100.00
2023-04-26T20:15:40.442Z,100.00
2023-04-26T20:18:07.656Z,100.00
2023-04-26T20:20:34.554Z,100.00
2023-04-26T20:23:03.122Z,100.00
2023-04-26T20:25:30.013Z,100.00
2023-04-26T20:27:57.237Z,100.00
2023-04-26T20:30:24.190Z,100.00
2023-04-26T20:32:51.342Z,100.00
2023-04-26T20:35:18.327Z,100.00
2023-04-26T20:37:45.918Z,100.00
2023-04-26T20:40:12.833Z,100.00
2023-04-26T20:42:39.980Z,100.00
2023-04-26T20:45:07.593Z,100.00
2023-04-26T20:47:34.815Z,100.00
2023-04-26T20:50:01.689Z,100.00
2023-04-26T20:52:28.923Z,100.00
2023-04-26T20:54:57.263Z,100.00
2023-04-26T20:57:24.670Z,100.00
2023-04-26T20:59:51.481Z,100.00
2023-04-26T21:02:18.930Z,100.00
2023-04-26T21:04:46.211Z,100.00
2023-04-26T21:07:13.542Z,100.00
2023-04-26T21:09:40.455Z,100.00
2023-04-26T21:12:07.678Z,100.00
2023-04-26T21:14:34.485Z,100.00
2023-04-26T21:17:01.721Z,100.00
2023-04-26T21:19:28.569Z,100.00
2023-04-26T21:21:55.804Z,100.00
2023-04-26T21:24:22.793Z,100.00
2023-04-26T21:26:50.008Z,100.00
2023-04-26T21:29:17.163Z,100.00
2023-04-26T21:31:44.481Z,100.00
2023-04-26T21:34:11.509Z,100.00
2023-04-26T21:36:38.662Z,100.00
2023-04-26T21:39:05.752Z,100.00
2023-04-26T21:41:32.888Z,100.00
2023-04-26T21:43:59.716Z,100.00
2023-04-26T21:46:27.038Z,100.00
2023-04-26T21:48:54.077Z,100.00
2023-04-26T21:51:21.236Z,100.00
2023-04-26T21:53:49.323Z,100.00
2023-04-26T21:56:16.589Z,100.00
2023-04-26T21:58:43.530Z,100.00
2023-04-26T22:01:12.703Z,100.00
2023-04-26T22:03:40.094Z,100.00
2023-04-26T22:06:08.661Z,100.00
2023-04-26T22:08:35.915Z,100.00
2023-04-26T22:11:03.253Z,100.00
2023-04-26T22:13:31.403Z,100.00
2023-04-26T22:15:58.722Z,100.00
2023-04-26T22:18:26.513Z,100.00
2023-04-26T22:20:53.729Z,100.00
2023-04-26T22:23:21.210Z,100.00
2023-04-26T22:25:48.009Z,100.00
2023-04-26T22:28:16.047Z,100.00
2023-04-26T22:30:43.007Z,100.00
2023-04-26T22:33:12.331Z,100.00
2023-04-26T22:35:39.251Z,100.00
2023-04-26T22:38:06.392Z,100.00
2023-04-26T22:40:33.404Z,100.00
2023-04-26T22:43:00.602Z,100.00
2023-04-26T22:45:27.584Z,100.00
2023-04-26T22:47:54.843Z,100.00
2023-04-26T22:50:22.156Z,100.00
2023-04-26T22:52:49.947Z,100.00
2023-04-26T22:55:17.535Z,100.00
2023-04-26T22:57:44.847Z,100.00
2023-04-26T23:00:12.826Z,100.00
2023-04-26T23:02:40.747Z,100.00
2023-04-26T23:05:10.274Z,100.00
2023-04-26T23:07:39.639Z,100.00
2023-04-26T23:10:07.026Z,100.00
2023-04-26T23:12:34.270Z,100.00
2023-04-26T23:15:01.956Z,100.00
2023-04-26T23:17:29.158Z,100.00
2023-04-26T23:19:56.527Z,100.00
2023-04-26T23:22:23.744Z,100.00
2023-04-26T23:24:50.814Z,100.00
2023-04-26T23:27:18.941Z,100.00
2023-04-26T23:29:45.954Z,100.00
2023-04-26T23:32:13.381Z,98.92
2023-04-26T23:34:40.288Z,98.42
2023-04-26T23:37:08.274Z,97.80
2023-04-26T23:39:36.308Z,97.19
2023-04-26T23:42:04.055Z,96.85
2023-04-26T23:44:30.994Z,96.70
2023-04-26T23:46:58.130Z,95.91
2023-04-26T23:49:25.559Z,95.03
2023-04-26T23:51:53.050Z,93.10
2023-04-26T23:54:19.943Z,92.19
2023-04-26T23:56:47.051Z,90.96
2023-04-26T23:59:14.320Z,90.39
